TAI535 MHLM-MSLP
Flight info
| Callsign | TAI535 |
|---|---|
| Flight time | N/A |
| Altitude | 16000 |
| Route | SAP DCT TIRNA DCT NAGEL DCT ATUMA ATUMA2M |
| Aircraft | A320/M-SDE3FGHIRWY/LB1 |
Departure
| Time | 2026-04-17 19:33 |
|---|---|
| Airport | Ramón Villeda Morales International Airport (MHLM) |
Arrival
| Time | N/A |
|---|---|
| Airport | El Salvador International Airport Saint Óscar Arnulfo Romero y Galdámez (MSLP) |
| Time | Latitude | Longitude | Altitude | Speed | Heading |
|---|---|---|---|---|---|
| 2026-04-17 19:15 | 15.45517 | -87.92690 | 92 ft | 0 kts | 313° |
| 2026-04-17 19:25 | 15.45514 | -87.92686 | 92 ft | 4 kts | 309° |
| 2026-04-17 19:25 | 15.45506 | -87.92670 | 91 ft | 4 kts | 227° |
| 2026-04-17 19:25 | 15.45525 | -87.92654 | 92 ft | 1 kts | 219° |
| 2026-04-17 19:25 | 15.45529 | -87.92651 | 92 ft | 0 kts | 219° |
| 2026-04-17 19:28 | 15.45489 | -87.92663 | 91 ft | 12 kts | 177° |
| 2026-04-17 19:28 | 15.45383 | -87.92636 | 92 ft | 18 kts | 146° |
| 2026-04-17 19:28 | 15.45280 | -87.92539 | 93 ft | 20 kts | 167° |
| 2026-04-17 19:29 | 15.45194 | -87.92601 | 94 ft | 14 kts | 210° |
| 2026-04-17 19:29 | 15.45106 | -87.92658 | 96 ft | 16 kts | 219° |
| 2026-04-17 19:29 | 15.45011 | -87.92739 | 93 ft | 19 kts | 219° |
| 2026-04-17 19:29 | 15.44903 | -87.92833 | 93 ft | 22 kts | 220° |
| 2026-04-17 19:30 | 15.44784 | -87.92938 | 93 ft | 23 kts | 221° |
| 2026-04-17 19:30 | 15.44660 | -87.93050 | 96 ft | 24 kts | 221° |
| 2026-04-17 19:30 | 15.44529 | -87.93164 | 94 ft | 25 kts | 220° |
| 2026-04-17 19:30 | 15.44395 | -87.93283 | 95 ft | 26 kts | 218° |
| 2026-04-17 19:31 | 15.44265 | -87.93370 | 96 ft | 12 kts | 174° |
| 2026-04-17 19:31 | 15.44248 | -87.93352 | 95 ft | 3 kts | 123° |
| 2026-04-17 19:31 | 15.44248 | -87.93302 | 94 ft | 17 kts | 88° |
| 2026-04-17 19:31 | 15.44306 | -87.93191 | 96 ft | 19 kts | 38° |
| 2026-04-17 19:32 | 15.44417 | -87.93097 | 95 ft | 25 kts | 39° |
| 2026-04-17 19:32 | 15.44734 | -87.92817 | 92 ft | 96 kts | 39° |
| 2026-04-17 19:32 | 15.45403 | -87.92234 | 97 ft | 152 kts | 40° |
| 2026-04-17 19:32 | 15.46274 | -87.91472 | 470 ft | 171 kts | 39° |
| 2026-04-17 19:33 | 15.47238 | -87.90669 | 1069 ft | 183 kts | 37° |
| 2026-04-17 19:33 | 15.48272 | -87.89861 | 1714 ft | 188 kts | 37° |
| 2026-04-17 19:33 | 15.49196 | -87.88896 | 2353 ft | 190 kts | 54° |
| 2026-04-17 19:33 | 15.49779 | -87.87704 | 3085 ft | 188 kts | 73° |
| 2026-04-17 19:34 | 15.49982 | -87.86348 | 3747 ft | 194 kts | 91° |
| 2026-04-17 19:34 | 15.49771 | -87.84970 | 4464 ft | 196 kts | 110° |
| 2026-04-17 19:34 | 15.49012 | -87.83788 | 5029 ft | 206 kts | 141° |
| 2026-04-17 19:34 | 15.47644 | -87.83205 | 5360 ft | 228 kts | 179° |
| 2026-04-17 19:35 | 15.46070 | -87.83650 | 5741 ft | 250 kts | 212° |
| 2026-04-17 19:35 | 15.45054 | -87.84334 | 6047 ft | 264 kts | 214° |